createdAt,value
2023-02-25T00:01:51.338Z,2.28
2023-02-25T00:04:23.392Z,2.30
2023-02-25T00:06:51.244Z,1.98
2023-02-25T00:09:19.074Z,1.88
2023-02-25T00:11:47.042Z,2.45
2023-02-25T00:14:14.880Z,1.75
2023-02-25T00:16:42.844Z,2.40
2023-02-25T00:19:10.859Z,2.17
2023-02-25T00:21:38.772Z,2.00
2023-02-25T00:24:15.955Z,2.17
2023-02-25T00:26:45.690Z,1.85
2023-02-25T00:29:13.920Z,2.38
2023-02-25T00:31:42.283Z,1.75
2023-02-25T00:34:10.250Z,2.33
2023-02-25T00:36:39.937Z,1.90
2023-02-25T00:39:09.433Z,2.38
2023-02-25T00:41:37.132Z,2.75
2023-02-25T00:44:05.948Z,2.10
2023-02-25T00:46:34.627Z,2.30
2023-02-25T00:49:03.044Z,2.47
2023-02-25T00:51:32.932Z,2.13
2023-02-25T00:54:01.160Z,2.08
2023-02-25T00:56:29.985Z,2.63
2023-02-25T00:58:57.612Z,1.80
2023-02-25T01:01:29.485Z,2.25
2023-02-25T01:03:59.112Z,1.95
2023-02-25T01:06:28.841Z,1.83
2023-02-25T01:08:57.318Z,1.80
2023-02-25T01:11:31.003Z,2.15
2023-02-25T01:14:01.463Z,1.70
2023-02-25T01:16:31.980Z,1.58
2023-02-25T01:19:02.896Z,2.35
2023-02-25T01:21:37.938Z,1.63
2023-02-25T01:24:11.610Z,1.80
2023-02-25T01:26:42.365Z,1.30
2023-02-25T01:29:13.209Z,1.48
2023-02-25T01:31:41.733Z,1.50
2023-02-25T01:34:14.412Z,1.27
2023-02-25T01:36:42.397Z,1.23
2023-02-25T01:39:11.140Z,1.40
2023-02-25T01:41:40.001Z,1.38
2023-02-25T01:44:15.696Z,1.17
2023-02-25T01:46:46.001Z,1.75
2023-02-25T01:49:19.423Z,1.40
2023-02-25T01:54:18.436Z,1.10
2023-02-25T01:56:50.892Z,1.10
2023-02-25T01:59:21.202Z,1.43
2023-02-25T02:01:49.163Z,1.05
2023-02-25T02:04:18.726Z,1.10
2023-02-25T02:06:49.492Z,0.90
2023-02-25T02:09:21.639Z,0.82
2023-02-25T02:11:49.816Z,1.13
2023-02-25T02:14:22.031Z,1.05
2023-02-25T02:17:09.988Z,1.30
2023-02-25T02:19:58.132Z,1.13
2023-02-25T02:22:41.215Z,1.17
2023-02-25T02:25:26.501Z,1.15
2023-02-25T02:28:16.141Z,1.17
2023-02-25T02:31:31.422Z,1.60
2023-02-25T02:34:19.838Z,1.67
2023-02-25T02:37:14.050Z,1.35
2023-02-25T02:39:51.214Z,1.35
2023-02-25T02:42:31.244Z,1.35
2023-02-25T02:45:14.163Z,1.58
2023-02-25T02:47:47.075Z,1.20
2023-02-25T02:50:27.052Z,1.42
2023-02-25T02:52:58.448Z,1.30
2023-02-25T02:55:41.356Z,1.40
2023-02-25T02:58:18.682Z,1.17
2023-02-25T03:00:51.195Z,1.20
2023-02-25T03:03:36.546Z,1.20
2023-02-25T03:06:09.792Z,1.48
2023-02-25T03:08:47.815Z,1.60
2023-02-25T03:11:15.925Z,1.40
2023-02-25T03:13:44.102Z,1.35
2023-02-25T03:16:29.960Z,1.48
2023-02-25T03:19:08.421Z,1.23
2023-02-25T03:21:46.559Z,1.23
2023-02-25T03:24:35.495Z,1.35
2023-02-25T03:27:21.336Z,1.30
2023-02-25T03:29:49.567Z,1.17
2023-02-25T03:32:19.114Z,1.20
2023-02-25T03:34:57.184Z,1.17
2023-02-25T03:37:30.772Z,1.67
2023-02-25T03:40:11.585Z,1.20
2023-02-25T03:43:00.908Z,1.02
2023-02-25T03:45:29.508Z,1.38
2023-02-25T03:47:59.412Z,1.20
2023-02-25T03:50:33.716Z,1.33
2023-02-25T03:53:01.615Z,1.20
2023-02-25T03:55:29.838Z,1.08
2023-02-25T03:57:58.147Z,1.30
2023-02-25T04:00:33.096Z,1.40
2023-02-25T04:03:01.329Z,0.90
2023-02-25T04:05:29.233Z,1.15
2023-02-25T04:07:59.165Z,1.13
2023-02-25T04:10:28.709Z,1.08
2023-02-25T04:12:56.545Z,1.60
2023-02-25T04:15:24.514Z,1.30
2023-02-25T04:17:52.752Z,1.08
2023-02-25T04:20:20.865Z,1.15
2023-02-25T04:22:48.681Z,1.15
2023-02-25T04:25:16.637Z,1.77
2023-02-25T04:27:44.825Z,1.73
2023-02-25T04:30:13.375Z,1.10
2023-02-25T04:32:41.225Z,1.17
2023-02-25T04:35:12.925Z,1.10
2023-02-25T04:37:42.122Z,1.13
2023-02-25T04:40:19.251Z,1.50
2023-02-25T04:42:47.593Z,0.77
2023-02-25T04:45:16.290Z,1.23
2023-02-25T04:47:44.425Z,0.90
2023-02-25T04:50:12.980Z,1.45
2023-02-25T04:52:40.748Z,1.23
2023-02-25T04:55:10.024Z,1.42
2023-02-25T04:57:42.889Z,1.20
2023-02-25T05:00:20.490Z,1.15
2023-02-25T05:02:49.083Z,1.02
2023-02-25T05:05:18.106Z,1.23
2023-02-25T05:07:46.538Z,1.17
2023-02-25T05:10:15.459Z,1.08
2023-02-25T05:12:43.033Z,1.10
2023-02-25T05:15:11.571Z,1.02
2023-02-25T05:17:39.257Z,0.98
2023-02-25T05:20:12.298Z,1.15
2023-02-25T05:22:41.341Z,1.33
2023-02-25T05:25:10.602Z,4.35
2023-02-25T05:27:38.783Z,1.45
2023-02-25T05:30:07.047Z,1.27
2023-02-25T05:32:34.714Z,1.05
2023-02-25T05:35:02.473Z,1.67
2023-02-25T05:37:32.010Z,1.85
2023-02-25T05:39:59.511Z,1.85
2023-02-25T05:42:28.551Z,1.48
2023-02-25T05:44:56.465Z,1.08
2023-02-25T05:47:23.959Z,1.30
2023-02-25T05:49:51.844Z,1.13
2023-02-25T05:52:19.500Z,1.00
2023-02-25T05:54:48.482Z,1.00
2023-02-25T05:57:16.239Z,0.90
2023-02-25T05:59:43.764Z,1.00
2023-02-25T06:02:11.323Z,0.88
2023-02-25T06:04:39.031Z,0.98
2023-02-25T06:07:07.270Z,0.80
2023-02-25T06:09:37.666Z,1.30
2023-02-25T06:12:05.513Z,0.60
2023-02-25T06:14:33.029Z,0.75
2023-02-25T06:17:00.778Z,0.90
2023-02-25T06:19:28.793Z,1.13
2023-02-25T06:21:56.718Z,0.77
2023-02-25T06:24:24.932Z,0.68
2023-02-25T06:26:52.576Z,0.73
2023-02-25T06:29:20.385Z,0.90
2023-02-25T06:31:48.390Z,0.93
2023-02-25T06:34:16.619Z,1.02
2023-02-25T06:36:44.210Z,0.75
2023-02-25T06:39:11.931Z,0.80
2023-02-25T06:41:39.761Z,1.10
2023-02-25T06:44:07.354Z,1.17
2023-02-25T06:46:35.022Z,0.68
2023-02-25T06:49:02.805Z,1.02
2023-02-25T06:51:30.860Z,1.05
2023-02-25T06:53:58.780Z,0.77
2023-02-25T06:56:26.929Z,1.20
2023-02-25T06:58:55.414Z,0.90
2023-02-25T07:01:23.392Z,1.08
2023-02-25T07:03:51.596Z,0.88
2023-02-25T07:06:19.928Z,1.00
2023-02-25T07:08:47.615Z,1.08
2023-02-25T07:11:18.024Z,0.90
2023-02-25T07:13:47.945Z,1.45
2023-02-25T07:16:17.354Z,0.80
2023-02-25T07:18:46.127Z,0.88
2023-02-25T07:21:14.764Z,1.30
2023-02-25T07:23:43.183Z,0.88
2023-02-25T07:26:13.134Z,0.73
2023-02-25T07:28:41.162Z,1.00
2023-02-25T07:31:18.808Z,1.23
2023-02-25T07:33:47.078Z,0.93
2023-02-25T07:36:15.723Z,1.13
2023-02-25T07:38:43.949Z,1.40
2023-02-25T07:41:14.991Z,0.98
2023-02-25T07:43:43.079Z,1.00
2023-02-25T07:46:11.620Z,1.17
2023-02-25T07:48:39.255Z,0.80
2023-02-25T07:51:13.089Z,0.98
2023-02-25T07:53:40.994Z,1.15
2023-02-25T07:56:28.018Z,1.40
2023-02-25T07:58:55.903Z,1.38
2023-02-25T08:01:26.471Z,1.23
2023-02-25T08:04:00.313Z,1.58
2023-02-25T08:06:28.418Z,1.60
2023-02-25T08:08:56.619Z,1.13
2023-02-25T08:11:26.427Z,1.25
2023-02-25T08:13:54.428Z,1.10
2023-02-25T08:16:23.051Z,1.48
2023-02-25T08:18:50.750Z,1.42
2023-02-25T08:21:22.140Z,1.52
2023-02-25T08:23:52.081Z,1.42
2023-02-25T08:26:22.649Z,1.45
2023-02-25T08:28:52.136Z,1.25
2023-02-25T08:31:21.219Z,1.55
2023-02-25T08:33:50.041Z,1.35
2023-02-25T08:36:20.804Z,1.63
2023-02-25T08:38:50.548Z,1.20
2023-02-25T08:41:20.408Z,1.55
2023-02-25T08:43:56.086Z,1.80
2023-02-25T08:46:25.954Z,1.20
2023-02-25T08:48:54.951Z,1.30
2023-02-25T08:51:24.913Z,1.63
2023-02-25T08:53:52.597Z,1.30
2023-02-25T08:56:20.867Z,1.52
2023-02-25T08:58:48.753Z,1.35
2023-02-25T09:01:18.268Z,0.90
2023-02-25T09:03:54.389Z,1.13
2023-02-25T09:06:28.123Z,1.00
2023-02-25T09:08:56.922Z,0.88
2023-02-25T09:11:25.495Z,0.90
2023-02-25T09:13:53.638Z,0.93
2023-02-25T09:16:21.909Z,1.00
2023-02-25T09:18:51.551Z,1.10
2023-02-25T09:21:20.841Z,1.20
2023-02-25T09:23:51.507Z,1.15
2023-02-25T09:26:20.390Z,0.93
2023-02-25T09:28:51.345Z,1.02
2023-02-25T09:31:19.547Z,0.98
2023-02-25T09:33:47.337Z,0.88
2023-02-25T09:36:20.005Z,0.98
2023-02-25T09:38:49.925Z,1.17
2023-02-25T09:41:40.981Z,1.30
2023-02-25T09:44:21.933Z,1.02
2023-02-25T09:47:14.537Z,0.88
2023-02-25T09:49:52.057Z,1.13
2023-02-25T09:52:32.115Z,1.48
2023-02-25T09:55:04.210Z,0.98
2023-02-25T09:57:37.606Z,0.80
2023-02-25T10:00:12.818Z,0.88
2023-02-25T10:03:12.979Z,0.75
2023-02-25T10:05:50.272Z,1.33
2023-02-25T10:08:44.348Z,0.90
2023-02-25T10:11:27.722Z,1.20
2023-02-25T10:14:12.965Z,0.73
2023-02-25T10:17:03.889Z,0.70
2023-02-25T10:19:51.144Z,0.95
2023-02-25T10:22:56.209Z,0.65
2023-02-25T10:25:28.071Z,0.80
2023-02-25T10:28:03.765Z,0.93
2023-02-25T10:31:03.622Z,1.08
2023-02-25T10:33:37.146Z,1.00
2023-02-25T10:38:42.769Z,0.93
2023-02-25T10:41:10.476Z,1.20
2023-02-25T10:43:38.256Z,1.17
2023-02-25T10:46:16.174Z,1.38
2023-02-25T10:48:54.169Z,1.23
2023-02-25T10:51:22.058Z,0.98
2023-02-25T10:53:58.692Z,1.30
2023-02-25T10:56:30.950Z,1.40
2023-02-25T10:59:08.472Z,1.50
2023-02-25T11:01:39.874Z,1.45
2023-02-25T11:04:14.336Z,1.42
2023-02-25T11:06:43.902Z,1.60
2023-02-25T11:09:20.315Z,1.17
2023-02-25T11:12:08.665Z,1.23
2023-02-25T11:14:38.520Z,1.17
2023-02-25T11:17:15.046Z,1.17
2023-02-25T11:19:46.880Z,2.03
2023-02-25T11:22:29.948Z,1.70
2023-02-25T11:25:05.006Z,1.13
2023-02-25T11:27:38.956Z,1.73
2023-02-25T11:30:12.909Z,1.10
2023-02-25T11:35:28.918Z,1.60
2023-02-25T11:38:00.775Z,1.05
2023-02-25T11:40:42.748Z,1.13
2023-02-25T11:43:25.577Z,1.00
2023-02-25T11:46:02.281Z,1.67
2023-02-25T11:48:45.646Z,1.40
2023-02-25T11:51:32.477Z,1.40
2023-02-25T11:54:11.545Z,0.98
2023-02-25T11:56:44.027Z,1.40
2023-02-25T11:59:29.328Z,1.98
2023-02-25T12:02:15.481Z,1.45
2023-02-25T12:05:24.982Z,1.65
2023-02-25T12:08:14.427Z,1.48
2023-02-25T12:11:06.934Z,1.30
2023-02-25T12:14:04.512Z,1.05
2023-02-25T12:17:02.035Z,1.00
2023-02-25T12:19:50.475Z,1.10
2023-02-25T12:23:04.499Z,1.13
2023-02-25T12:25:49.435Z,1.30
2023-02-25T12:28:41.951Z,0.80
2023-02-25T12:31:32.947Z,0.88
2023-02-25T12:34:15.842Z,0.98
2023-02-25T12:37:01.130Z,1.00
2023-02-25T12:39:56.372Z,0.50
2023-02-25T12:43:00.660Z,0.60
2023-02-25T12:48:48.384Z,0.68
2023-02-25T12:51:34.038Z,0.52
2023-02-25T12:54:51.599Z,0.60
2023-02-25T12:57:37.103Z,0.60
2023-02-25T13:00:26.187Z,0.50
2023-02-25T13:03:33.618Z,0.68
2023-02-25T13:06:15.891Z,0.80
2023-02-25T13:08:46.621Z,0.80
2023-02-25T13:11:54.615Z,0.68
2023-02-25T13:14:37.956Z,0.80
2023-02-25T13:17:21.196Z,0.70
2023-02-25T13:19:54.795Z,0.60
2023-02-25T13:22:53.528Z,0.98
2023-02-25T13:25:39.771Z,0.80
2023-02-25T13:28:39.624Z,0.63
2023-02-25T13:31:19.720Z,0.50
2023-02-25T13:34:23.612Z,0.38
2023-02-25T13:36:51.182Z,0.20
2023-02-25T13:39:21.925Z,0.25
2023-02-25T13:42:08.643Z,0.40
2023-02-25T13:44:45.208Z,0.32
2023-02-25T13:47:21.470Z,0.43
2023-02-25T13:50:26.276Z,0.20
2023-02-25T13:53:15.444Z,0.30
2023-02-25T13:56:07.582Z,0.60
2023-02-25T13:58:41.669Z,0.47
2023-02-25T14:01:40.621Z,0.40
2023-02-25T14:04:20.006Z,0.45
2023-02-25T14:07:30.078Z,0.68
2023-02-25T14:10:04.218Z,0.40
2023-02-25T14:12:46.946Z,0.50
2023-02-25T14:15:51.908Z,0.88
2023-02-25T14:18:49.879Z,1.05
2023-02-25T14:25:06.094Z,2.30
2023-02-25T14:27:36.824Z,1.60
2023-02-25T14:30:33.673Z,1.00
2023-02-25T14:33:25.664Z,0.77
2023-02-25T14:36:20.988Z,0.40
2023-02-25T14:38:58.789Z,0.30
2023-02-25T14:41:41.586Z,0.50
2023-02-25T14:44:16.817Z,0.55
2023-02-25T14:46:58.705Z,0.43
2023-02-25T14:49:36.013Z,0.50
2023-02-25T14:52:18.488Z,1.00
2023-02-25T14:55:06.118Z,0.50
2023-02-25T14:57:49.960Z,0.60
2023-02-25T15:00:46.787Z,0.55
2023-02-25T15:03:30.979Z,0.80
2023-02-25T15:06:23.271Z,0.70
2023-02-25T15:09:09.007Z,0.88
2023-02-25T15:11:59.754Z,1.10
2023-02-25T15:15:02.839Z,0.70
2023-02-25T15:17:46.958Z,0.70
2023-02-25T15:20:29.184Z,0.47
2023-02-25T15:23:17.276Z,0.82
2023-02-25T15:25:51.587Z,0.60
2023-02-25T15:28:31.640Z,0.73
2023-02-25T15:31:02.285Z,0.73
2023-02-25T15:33:43.386Z,0.80
2023-02-25T15:36:17.906Z,0.50
2023-02-25T15:38:59.249Z,0.70
2023-02-25T15:41:29.477Z,0.43
2023-02-25T15:44:20.809Z,0.90
2023-02-25T15:46:50.028Z,0.85
2023-02-25T15:49:22.580Z,0.90
2023-02-25T15:51:59.296Z,0.85
2023-02-25T15:54:29.795Z,0.70
2023-02-25T15:57:01.581Z,1.50
2023-02-25T15:59:48.407Z,0.70
2023-02-25T16:02:29.004Z,1.02
2023-02-25T16:05:03.553Z,0.60
2023-02-25T16:07:38.091Z,1.40
2023-02-25T16:10:32.517Z,0.90
2023-02-25T16:13:01.880Z,1.10
2023-02-25T16:15:43.608Z,0.88
2023-02-25T16:18:14.319Z,0.82
2023-02-25T16:20:54.780Z,0.98
2023-02-25T16:23:22.347Z,0.68
2023-02-25T16:26:08.266Z,1.02
2023-02-25T16:28:48.468Z,1.10
2023-02-25T16:31:24.851Z,0.90
2023-02-25T16:34:11.348Z,1.20
2023-02-25T16:37:08.903Z,0.90
2023-02-25T16:39:37.638Z,0.90
2023-02-25T16:42:11.065Z,0.80
2023-02-25T16:47:30.960Z,0.52
2023-02-25T16:50:01.436Z,0.75
2023-02-25T16:52:37.721Z,0.95
2023-02-25T16:55:12.835Z,0.80
2023-02-25T16:57:40.516Z,0.80
2023-02-25T17:00:23.209Z,1.02
2023-02-25T17:02:52.766Z,1.15
2023-02-25T17:05:38.859Z,1.20
2023-02-25T17:08:15.216Z,1.08
2023-02-25T17:10:56.701Z,1.08
2023-02-25T17:13:28.256Z,0.70
2023-02-25T17:15:56.513Z,0.80
2023-02-25T17:18:32.833Z,1.30
2023-02-25T17:21:23.698Z,1.15
2023-02-25T17:23:52.831Z,1.00
2023-02-25T17:26:21.588Z,1.23
2023-02-25T17:28:52.896Z,1.25
2023-02-25T17:31:26.952Z,2.08
2023-02-25T17:33:55.857Z,2.85
2023-02-25T17:36:33.361Z,2.90
2023-02-25T17:39:04.591Z,3.15
2023-02-25T17:41:32.928Z,2.80
2023-02-25T17:44:00.886Z,1.70
2023-02-25T17:46:38.335Z,1.52
2023-02-25T17:49:22.775Z,1.33
2023-02-25T17:51:59.761Z,1.48
2023-02-25T17:54:32.729Z,0.93
2023-02-25T17:57:21.093Z,1.38
2023-02-25T17:59:52.588Z,1.00
2023-02-25T18:02:23.237Z,1.10
2023-02-25T18:04:53.858Z,1.40
2023-02-25T18:07:33.390Z,1.38
2023-02-25T18:10:01.595Z,1.23
2023-02-25T18:12:37.730Z,1.40
2023-02-25T18:15:19.389Z,1.20
2023-02-25T18:17:55.376Z,1.27
2023-02-25T18:20:29.117Z,1.13
2023-02-25T18:23:00.211Z,1.08
2023-02-25T18:25:37.230Z,1.00
2023-02-25T18:28:07.384Z,1.40
2023-02-25T18:30:34.888Z,1.23
2023-02-25T18:33:02.309Z,1.35
2023-02-25T18:35:31.454Z,1.50
2023-02-25T18:38:00.618Z,1.52
2023-02-25T18:40:36.000Z,1.30
2023-02-25T18:43:04.017Z,2.08
2023-02-25T18:45:33.392Z,1.55
2023-02-25T18:48:01.827Z,1.60
2023-02-25T18:50:31.126Z,1.30
2023-02-25T18:52:59.306Z,1.10
2023-02-25T18:55:29.813Z,1.17
2023-02-25T18:57:58.948Z,0.88
2023-02-25T19:00:30.376Z,1.20
2023-02-25T19:03:03.052Z,1.00
2023-02-25T19:05:31.120Z,1.27
2023-02-25T19:07:58.998Z,1.42
2023-02-25T19:10:31.180Z,1.20
2023-02-25T19:13:04.906Z,1.42
2023-02-25T19:15:33.196Z,1.25
2023-02-25T19:18:00.812Z,1.15
2023-02-25T19:20:28.381Z,1.33
2023-02-25T19:22:56.056Z,1.05
2023-02-25T19:25:25.974Z,1.40
2023-02-25T19:27:54.488Z,1.52
2023-02-25T19:30:25.097Z,1.35
2023-02-25T19:32:53.227Z,1.10
2023-02-25T19:35:20.768Z,1.13
2023-02-25T19:37:48.591Z,1.23
2023-02-25T19:40:16.720Z,1.23
2023-02-25T19:42:44.996Z,1.02
2023-02-25T19:45:17.076Z,1.52
2023-02-25T19:47:44.944Z,1.38
2023-02-25T19:50:13.378Z,1.65
2023-02-25T19:52:41.148Z,1.35
2023-02-25T19:55:11.466Z,1.45
2023-02-25T19:57:39.949Z,1.23
2023-02-25T20:00:12.372Z,1.75
2023-02-25T20:02:40.200Z,1.63
2023-02-25T20:05:08.462Z,2.13
2023-02-25T20:07:36.412Z,1.65
2023-02-25T20:10:05.390Z,1.85
2023-02-25T20:12:32.980Z,1.58
2023-02-25T20:15:00.727Z,1.55
2023-02-25T20:17:28.359Z,1.52
2023-02-25T20:19:55.772Z,1.70
2023-02-25T20:22:24.024Z,1.92
2023-02-25T20:24:51.506Z,1.55
2023-02-25T20:27:18.985Z,2.03
2023-02-25T20:29:46.694Z,2.67
2023-02-25T20:32:14.330Z,1.80
2023-02-25T20:34:42.100Z,1.77
2023-02-25T20:37:18.967Z,1.90
2023-02-25T20:39:55.088Z,1.65
2023-02-25T20:42:29.522Z,1.67
2023-02-25T20:44:58.986Z,1.85
2023-02-25T20:47:35.054Z,2.05
2023-02-25T20:50:04.526Z,2.10
2023-02-25T20:52:32.422Z,1.80
2023-02-25T20:55:00.101Z,1.95
2023-02-25T20:57:27.623Z,2.15
2023-02-25T20:59:55.140Z,2.10
2023-02-25T21:02:23.166Z,1.90
2023-02-25T21:04:51.591Z,2.25
2023-02-25T21:07:19.024Z,2.30
2023-02-25T21:09:47.493Z,2.28
2023-02-25T21:12:14.938Z,2.10
2023-02-25T21:14:42.482Z,2.10
2023-02-25T21:17:13.826Z,2.78
2023-02-25T21:19:41.385Z,2.00
2023-02-25T21:22:09.117Z,2.40
2023-02-25T21:24:37.094Z,2.40
2023-02-25T21:27:04.767Z,2.70
2023-02-25T21:29:32.611Z,3.92
2023-02-25T21:32:00.222Z,5.97
2023-02-25T21:34:27.916Z,7.43
2023-02-25T21:36:58.430Z,10.55
2023-02-25T21:39:26.666Z,8.27
2023-02-25T21:41:54.350Z,7.38
2023-02-25T21:44:24.796Z,6.57
2023-02-25T21:46:52.549Z,4.65
2023-02-25T21:49:20.000Z,4.63
2023-02-25T21:51:47.457Z,3.72
2023-02-25T21:54:15.388Z,3.80
2023-02-25T21:56:43.197Z,3.22
2023-02-25T21:59:10.813Z,2.38
2023-02-25T22:01:41.188Z,3.83
2023-02-25T22:04:09.901Z,2.78
2023-02-25T22:06:37.973Z,4.10
2023-02-25T22:09:07.064Z,3.28
2023-02-25T22:11:36.252Z,2.78
2023-02-25T22:14:05.815Z,2.55
2023-02-25T22:16:34.374Z,2.40
2023-02-25T22:19:02.047Z,2.78
2023-02-25T22:21:31.944Z,3.22
2023-02-25T22:24:01.940Z,3.13
2023-02-25T22:26:32.275Z,3.60
2023-02-25T22:29:02.888Z,3.50
2023-02-25T22:31:30.945Z,3.03
2023-02-25T22:33:58.749Z,3.60
2023-02-25T22:36:26.618Z,3.22
2023-02-25T22:38:55.913Z,3.47
2023-02-25T22:41:29.505Z,2.85
2023-02-25T22:44:00.790Z,3.13
2023-02-25T22:46:30.522Z,3.75
2023-02-25T22:48:58.767Z,3.17
2023-02-25T22:51:35.568Z,3.30
2023-02-25T22:54:04.848Z,3.20
2023-02-25T22:56:32.383Z,2.60
2023-02-25T22:59:00.694Z,3.15
2023-02-25T23:01:28.716Z,3.17
2023-02-25T23:03:57.316Z,3.22
2023-02-25T23:06:42.145Z,3.47
2023-02-25T23:09:13.220Z,3.72
2023-02-25T23:11:42.121Z,3.42
2023-02-25T23:14:10.429Z,3.25
2023-02-25T23:16:40.849Z,4.13
2023-02-25T23:19:11.336Z,3.80
2023-02-25T23:21:38.820Z,3.80
2023-02-25T23:24:07.855Z,3.97
2023-02-25T23:26:40.588Z,4.65
2023-02-25T23:29:09.992Z,4.38
2023-02-25T23:31:41.992Z,4.35
2023-02-25T23:34:17.583Z,4.30
2023-02-25T23:36:45.426Z,3.65
2023-02-25T23:39:14.496Z,3.88
2023-02-25T23:41:42.948Z,4.05
2023-02-25T23:44:12.331Z,4.38
2023-02-25T23:46:42.947Z,3.90
2023-02-25T23:49:13.210Z,3.80
2023-02-25T23:51:45.342Z,3.53
2023-02-25T23:54:15.717Z,3.40
2023-02-25T23:56:43.549Z,3.40
2023-02-25T23:59:12.277Z,3.17
